sensor_id;sensor_type;location;lat;lon;timestamp;P1;durP1;ratioP1;P2;durP2;ratioP2
5900;SDS011;2976;49.764;9.796;2023-04-07T00:01:05;8.33;;;6.20;;
5900;SDS011;2976;49.764;9.796;2023-04-07T00:03:31;8.80;;;6.13;;
5900;SDS011;2976;49.764;9.796;2023-04-07T00:05:57;8.77;;;6.17;;
5900;SDS011;2976;49.764;9.796;2023-04-07T00:08:23;6.80;;;4.80;;
5900;SDS011;2976;49.764;9.796;2023-04-07T00:10:48;9.60;;;6.10;;
5900;SDS011;2976;49.764;9.796;2023-04-07T00:13:14;6.27;;;5.60;;
5900;SDS011;2976;49.764;9.796;2023-04-07T00:15:40;6.50;;;5.67;;
5900;SDS011;2976;49.764;9.796;2023-04-07T00:18:05;8.63;;;5.57;;
5900;SDS011;2976;49.764;9.796;2023-04-07T00:20:31;7.77;;;6.07;;
5900;SDS011;2976;49.764;9.796;2023-04-07T00:22:56;9.80;;;5.87;;
5900;SDS011;2976;49.764;9.796;2023-04-07T00:25:22;9.63;;;6.40;;
5900;SDS011;2976;49.764;9.796;2023-04-07T00:27:47;9.67;;;6.13;;
5900;SDS011;2976;49.764;9.796;2023-04-07T00:30:13;8.53;;;5.90;;
5900;SDS011;2976;49.764;9.796;2023-04-07T00:32:39;8.03;;;6.53;;
5900;SDS011;2976;49.764;9.796;2023-04-07T00:35:05;10.00;;;6.60;;
5900;SDS011;2976;49.764;9.796;2023-04-07T00:37:31;12.03;;;6.50;;
5900;SDS011;2976;49.764;9.796;2023-04-07T00:39:56;7.83;;;5.70;;
5900;SDS011;2976;49.764;9.796;2023-04-07T00:42:23;8.70;;;5.90;;
5900;SDS011;2976;49.764;9.796;2023-04-07T00:44:48;9.03;;;6.73;;
5900;SDS011;2976;49.764;9.796;2023-04-07T00:47:14;6.80;;;5.67;;
5900;SDS011;2976;49.764;9.796;2023-04-07T00:49:40;9.13;;;6.20;;
5900;SDS011;2976;49.764;9.796;2023-04-07T00:52:06;10.30;;;6.73;;
5900;SDS011;2976;49.764;9.796;2023-04-07T00:54:35;12.20;;;7.17;;
5900;SDS011;2976;49.764;9.796;2023-04-07T00:57:01;9.50;;;6.20;;
5900;SDS011;2976;49.764;9.796;2023-04-07T00:59:26;9.17;;;6.30;;
5900;SDS011;2976;49.764;9.796;2023-04-07T01:02:05;9.20;;;6.50;;
5900;SDS011;2976;49.764;9.796;2023-04-07T01:04:53;8.60;;;7.10;;
5900;SDS011;2976;49.764;9.796;2023-04-07T01:10:11;11.73;;;6.30;;
5900;SDS011;2976;49.764;9.796;2023-04-07T01:12:44;6.40;;;5.77;;
5900;SDS011;2976;49.764;9.796;2023-04-07T01:15:17;7.20;;;5.50;;
5900;SDS011;2976;49.764;9.796;2023-04-07T01:17:47;8.27;;;5.93;;
5900;SDS011;2976;49.764;9.796;2023-04-07T01:20:16;11.67;;;6.47;;
5900;SDS011;2976;49.764;9.796;2023-04-07T01:22:49;8.40;;;6.50;;
5900;SDS011;2976;49.764;9.796;2023-04-07T01:30:49;11.00;;;7.20;;
5900;SDS011;2976;49.764;9.796;2023-04-07T01:33:20;9.83;;;6.60;;
5900;SDS011;2976;49.764;9.796;2023-04-07T01:35:47;12.83;;;6.63;;
5900;SDS011;2976;49.764;9.796;2023-04-07T01:38:15;6.93;;;6.20;;
5900;SDS011;2976;49.764;9.796;2023-04-07T01:40:41;10.50;;;6.53;;
5900;SDS011;2976;49.764;9.796;2023-04-07T01:43:08;9.10;;;6.30;;
5900;SDS011;2976;49.764;9.796;2023-04-07T01:45:35;8.03;;;5.97;;
5900;SDS011;2976;49.764;9.796;2023-04-07T01:48:04;9.50;;;7.33;;
5900;SDS011;2976;49.764;9.796;2023-04-07T01:50:31;11.70;;;7.60;;
5900;SDS011;2976;49.764;9.796;2023-04-07T01:52:58;15.80;;;6.80;;
5900;SDS011;2976;49.764;9.796;2023-04-07T01:55:24;11.57;;;7.10;;
5900;SDS011;2976;49.764;9.796;2023-04-07T01:57:52;17.23;;;7.67;;
5900;SDS011;2976;49.764;9.796;2023-04-07T02:00:17;15.63;;;8.07;;
5900;SDS011;2976;49.764;9.796;2023-04-07T02:02:44;10.20;;;6.53;;
5900;SDS011;2976;49.764;9.796;2023-04-07T02:05:14;10.30;;;6.67;;
5900;SDS011;2976;49.764;9.796;2023-04-07T02:10:19;15.53;;;8.07;;
5900;SDS011;2976;49.764;9.796;2023-04-07T02:12:47;11.13;;;6.77;;
5900;SDS011;2976;49.764;9.796;2023-04-07T02:15:13;9.03;;;6.53;;
5900;SDS011;2976;49.764;9.796;2023-04-07T02:17:42;12.67;;;8.00;;
5900;SDS011;2976;49.764;9.796;2023-04-07T02:20:11;9.23;;;6.77;;
5900;SDS011;2976;49.764;9.796;2023-04-07T02:22:39;10.20;;;7.17;;
5900;SDS011;2976;49.764;9.796;2023-04-07T02:25:25;10.43;;;7.77;;
5900;SDS011;2976;49.764;9.796;2023-04-07T02:27:53;9.13;;;6.37;;
5900;SDS011;2976;49.764;9.796;2023-04-07T02:30:20;10.93;;;6.90;;
5900;SDS011;2976;49.764;9.796;2023-04-07T02:32:46;8.03;;;6.17;;
5900;SDS011;2976;49.764;9.796;2023-04-07T02:35:13;9.63;;;7.27;;
5900;SDS011;2976;49.764;9.796;2023-04-07T02:37:39;8.80;;;6.47;;
5900;SDS011;2976;49.764;9.796;2023-04-07T02:40:05;10.83;;;6.90;;
5900;SDS011;2976;49.764;9.796;2023-04-07T02:42:31;11.63;;;7.20;;
5900;SDS011;2976;49.764;9.796;2023-04-07T02:44:57;9.97;;;6.00;;
5900;SDS011;2976;49.764;9.796;2023-04-07T02:47:22;10.00;;;6.63;;
5900;SDS011;2976;49.764;9.796;2023-04-07T02:49:48;10.37;;;7.53;;
5900;SDS011;2976;49.764;9.796;2023-04-07T02:52:14;9.20;;;6.67;;
5900;SDS011;2976;49.764;9.796;2023-04-07T02:54:40;10.27;;;6.60;;
5900;SDS011;2976;49.764;9.796;2023-04-07T02:57:05;9.50;;;6.90;;
5900;SDS011;2976;49.764;9.796;2023-04-07T02:59:31;11.77;;;7.60;;
5900;SDS011;2976;49.764;9.796;2023-04-07T03:01:56;10.50;;;7.43;;
5900;SDS011;2976;49.764;9.796;2023-04-07T03:04:22;9.80;;;7.27;;
5900;SDS011;2976;49.764;9.796;2023-04-07T03:06:47;10.23;;;7.20;;
5900;SDS011;2976;49.764;9.796;2023-04-07T03:09:13;11.60;;;7.77;;
5900;SDS011;2976;49.764;9.796;2023-04-07T03:11:38;11.70;;;7.63;;
5900;SDS011;2976;49.764;9.796;2023-04-07T03:14:05;15.03;;;7.00;;
5900;SDS011;2976;49.764;9.796;2023-04-07T03:16:31;13.37;;;7.93;;
5900;SDS011;2976;49.764;9.796;2023-04-07T03:18:56;13.33;;;7.90;;
5900;SDS011;2976;49.764;9.796;2023-04-07T03:21:22;10.20;;;8.47;;
5900;SDS011;2976;49.764;9.796;2023-04-07T03:23:47;11.20;;;7.90;;
5900;SDS011;2976;49.764;9.796;2023-04-07T03:26:13;13.10;;;8.20;;
5900;SDS011;2976;49.764;9.796;2023-04-07T03:28:38;12.50;;;8.60;;
5900;SDS011;2976;49.764;9.796;2023-04-07T03:31:04;9.30;;;7.10;;
5900;SDS011;2976;49.764;9.796;2023-04-07T03:33:30;13.10;;;8.30;;
5900;SDS011;2976;49.764;9.796;2023-04-07T03:35:55;18.60;;;8.63;;
5900;SDS011;2976;49.764;9.796;2023-04-07T03:38:21;12.77;;;8.57;;
5900;SDS011;2976;49.764;9.796;2023-04-07T03:40:46;12.23;;;8.57;;
5900;SDS011;2976;49.764;9.796;2023-04-07T03:43:12;13.70;;;9.70;;
5900;SDS011;2976;49.764;9.796;2023-04-07T03:45:39;11.97;;;8.53;;
5900;SDS011;2976;49.764;9.796;2023-04-07T03:48:05;16.33;;;9.30;;
5900;SDS011;2976;49.764;9.796;2023-04-07T03:50:36;14.73;;;8.20;;
5900;SDS011;2976;49.764;9.796;2023-04-07T03:53:02;13.93;;;9.00;;
5900;SDS011;2976;49.764;9.796;2023-04-07T03:55:28;14.40;;;9.13;;
5900;SDS011;2976;49.764;9.796;2023-04-07T03:57:54;16.17;;;10.10;;
5900;SDS011;2976;49.764;9.796;2023-04-07T04:00:19;11.80;;;9.13;;
5900;SDS011;2976;49.764;9.796;2023-04-07T04:02:45;16.30;;;10.40;;
5900;SDS011;2976;49.764;9.796;2023-04-07T04:05:11;15.33;;;9.47;;
5900;SDS011;2976;49.764;9.796;2023-04-07T04:07:36;11.80;;;8.60;;
5900;SDS011;2976;49.764;9.796;2023-04-07T04:10:02;15.00;;;10.40;;
5900;SDS011;2976;49.764;9.796;2023-04-07T04:12:27;15.60;;;10.57;;
5900;SDS011;2976;49.764;9.796;2023-04-07T04:14:53;16.13;;;9.77;;
5900;SDS011;2976;49.764;9.796;2023-04-07T04:17:18;20.90;;;8.97;;
5900;SDS011;2976;49.764;9.796;2023-04-07T04:19:44;18.10;;;9.90;;
5900;SDS011;2976;49.764;9.796;2023-04-07T04:22:10;15.40;;;9.50;;
5900;SDS011;2976;49.764;9.796;2023-04-07T04:24:35;13.43;;;9.67;;
5900;SDS011;2976;49.764;9.796;2023-04-07T04:27:01;19.93;;;11.53;;
5900;SDS011;2976;49.764;9.796;2023-04-07T04:29:26;19.53;;;10.13;;
5900;SDS011;2976;49.764;9.796;2023-04-07T04:31:52;15.70;;;10.33;;
5900;SDS011;2976;49.764;9.796;2023-04-07T04:34:17;16.03;;;10.00;;
5900;SDS011;2976;49.764;9.796;2023-04-07T04:36:43;19.10;;;11.57;;
5900;SDS011;2976;49.764;9.796;2023-04-07T04:39:08;21.07;;;11.27;;
5900;SDS011;2976;49.764;9.796;2023-04-07T04:41:34;22.40;;;12.40;;
5900;SDS011;2976;49.764;9.796;2023-04-07T04:44:00;21.17;;;12.03;;
5900;SDS011;2976;49.764;9.796;2023-04-07T04:46:25;20.10;;;12.23;;
5900;SDS011;2976;49.764;9.796;2023-04-07T04:48:51;23.30;;;11.30;;
5900;SDS011;2976;49.764;9.796;2023-04-07T04:51:18;18.80;;;11.80;;
5900;SDS011;2976;49.764;9.796;2023-04-07T04:53:43;22.43;;;13.07;;
5900;SDS011;2976;49.764;9.796;2023-04-07T04:56:09;17.47;;;11.60;;
5900;SDS011;2976;49.764;9.796;2023-04-07T04:58:35;19.87;;;11.83;;
5900;SDS011;2976;49.764;9.796;2023-04-07T05:01:01;20.40;;;12.20;;
5900;SDS011;2976;49.764;9.796;2023-04-07T05:03:27;22.00;;;12.40;;
5900;SDS011;2976;49.764;9.796;2023-04-07T05:05:52;22.47;;;11.43;;
5900;SDS011;2976;49.764;9.796;2023-04-07T05:08:18;20.93;;;13.10;;
5900;SDS011;2976;49.764;9.796;2023-04-07T05:10:45;18.60;;;11.80;;
5900;SDS011;2976;49.764;9.796;2023-04-07T05:13:10;19.97;;;12.30;;
5900;SDS011;2976;49.764;9.796;2023-04-07T05:15:36;21.60;;;13.90;;
5900;SDS011;2976;49.764;9.796;2023-04-07T05:18:02;20.13;;;12.10;;
5900;SDS011;2976;49.764;9.796;2023-04-07T05:20:27;24.70;;;13.03;;
5900;SDS011;2976;49.764;9.796;2023-04-07T05:22:53;21.77;;;13.17;;
5900;SDS011;2976;49.764;9.796;2023-04-07T05:25:18;23.27;;;14.63;;
5900;SDS011;2976;49.764;9.796;2023-04-07T05:27:44;21.93;;;12.23;;
5900;SDS011;2976;49.764;9.796;2023-04-07T05:30:10;24.30;;;15.10;;
5900;SDS011;2976;49.764;9.796;2023-04-07T05:32:36;23.20;;;13.53;;
5900;SDS011;2976;49.764;9.796;2023-04-07T05:35:02;20.03;;;13.57;;
5900;SDS011;2976;49.764;9.796;2023-04-07T05:37:27;20.87;;;14.07;;
5900;SDS011;2976;49.764;9.796;2023-04-07T05:39:53;22.37;;;14.40;;
5900;SDS011;2976;49.764;9.796;2023-04-07T05:42:18;26.87;;;13.90;;
5900;SDS011;2976;49.764;9.796;2023-04-07T05:44:44;21.90;;;14.20;;
5900;SDS011;2976;49.764;9.796;2023-04-07T05:47:09;22.43;;;13.20;;
5900;SDS011;2976;49.764;9.796;2023-04-07T05:49:35;23.67;;;14.37;;
5900;SDS011;2976;49.764;9.796;2023-04-07T05:52:01;24.07;;;13.87;;
5900;SDS011;2976;49.764;9.796;2023-04-07T05:54:30;23.47;;;14.27;;
5900;SDS011;2976;49.764;9.796;2023-04-07T05:56:55;21.17;;;13.60;;
5900;SDS011;2976;49.764;9.796;2023-04-07T05:59:21;19.73;;;13.90;;
5900;SDS011;2976;49.764;9.796;2023-04-07T06:01:47;27.50;;;14.70;;
5900;SDS011;2976;49.764;9.796;2023-04-07T06:04:13;21.97;;;14.60;;
5900;SDS011;2976;49.764;9.796;2023-04-07T06:06:38;27.63;;;14.30;;
5900;SDS011;2976;49.764;9.796;2023-04-07T06:09:04;23.20;;;14.37;;
5900;SDS011;2976;49.764;9.796;2023-04-07T06:11:29;27.17;;;15.03;;
5900;SDS011;2976;49.764;9.796;2023-04-07T06:13:55;26.70;;;14.40;;
5900;SDS011;2976;49.764;9.796;2023-04-07T06:16:20;22.03;;;13.50;;
5900;SDS011;2976;49.764;9.796;2023-04-07T06:18:46;21.60;;;12.77;;
5900;SDS011;2976;49.764;9.796;2023-04-07T06:21:11;23.43;;;13.60;;
5900;SDS011;2976;49.764;9.796;2023-04-07T06:23:37;23.20;;;14.20;;
5900;SDS011;2976;49.764;9.796;2023-04-07T06:26:02;25.47;;;14.50;;
5900;SDS011;2976;49.764;9.796;2023-04-07T06:28:28;20.60;;;13.10;;
5900;SDS011;2976;49.764;9.796;2023-04-07T06:30:54;22.20;;;13.63;;
5900;SDS011;2976;49.764;9.796;2023-04-07T06:33:19;22.70;;;14.47;;
5900;SDS011;2976;49.764;9.796;2023-04-07T06:35:49;19.90;;;13.87;;
5900;SDS011;2976;49.764;9.796;2023-04-07T06:38:15;21.07;;;14.53;;
5900;SDS011;2976;49.764;9.796;2023-04-07T06:40:41;23.23;;;14.83;;
5900;SDS011;2976;49.764;9.796;2023-04-07T06:43:06;21.03;;;13.83;;
5900;SDS011;2976;49.764;9.796;2023-04-07T06:45:32;19.80;;;12.77;;
5900;SDS011;2976;49.764;9.796;2023-04-07T06:47:57;20.97;;;13.77;;
5900;SDS011;2976;49.764;9.796;2023-04-07T06:50:22;19.40;;;12.27;;
5900;SDS011;2976;49.764;9.796;2023-04-07T06:52:48;20.90;;;13.47;;
5900;SDS011;2976;49.764;9.796;2023-04-07T06:55:14;19.60;;;12.00;;
5900;SDS011;2976;49.764;9.796;2023-04-07T06:57:40;20.57;;;12.93;;
5900;SDS011;2976;49.764;9.796;2023-04-07T07:00:05;17.20;;;12.30;;
5900;SDS011;2976;49.764;9.796;2023-04-07T07:02:32;18.50;;;12.93;;
5900;SDS011;2976;49.764;9.796;2023-04-07T07:04:58;21.43;;;12.90;;
5900;SDS011;2976;49.764;9.796;2023-04-07T07:07:24;21.23;;;12.57;;
5900;SDS011;2976;49.764;9.796;2023-04-07T07:09:50;16.93;;;12.07;;
5900;SDS011;2976;49.764;9.796;2023-04-07T07:12:16;21.07;;;12.77;;
5900;SDS011;2976;49.764;9.796;2023-04-07T07:14:42;21.07;;;12.17;;
5900;SDS011;2976;49.764;9.796;2023-04-07T07:17:08;19.10;;;12.67;;
5900;SDS011;2976;49.764;9.796;2023-04-07T07:19:33;19.57;;;12.17;;
5900;SDS011;2976;49.764;9.796;2023-04-07T07:21:59;25.00;;;13.43;;
5900;SDS011;2976;49.764;9.796;2023-04-07T07:24:27;18.80;;;12.87;;
5900;SDS011;2976;49.764;9.796;2023-04-07T07:26:53;20.37;;;13.03;;
5900;SDS011;2976;49.764;9.796;2023-04-07T07:29:20;18.27;;;12.40;;
5900;SDS011;2976;49.764;9.796;2023-04-07T07:31:46;18.70;;;12.10;;
5900;SDS011;2976;49.764;9.796;2023-04-07T07:34:11;18.20;;;12.70;;
5900;SDS011;2976;49.764;9.796;2023-04-07T07:36:37;22.00;;;12.63;;
5900;SDS011;2976;49.764;9.796;2023-04-07T07:39:02;18.80;;;12.63;;
5900;SDS011;2976;49.764;9.796;2023-04-07T07:41:29;16.23;;;12.30;;
5900;SDS011;2976;49.764;9.796;2023-04-07T07:43:55;21.30;;;12.00;;
5900;SDS011;2976;49.764;9.796;2023-04-07T07:46:20;17.30;;;12.30;;
5900;SDS011;2976;49.764;9.796;2023-04-07T07:48:49;18.77;;;13.30;;
5900;SDS011;2976;49.764;9.796;2023-04-07T07:51:15;22.37;;;13.80;;
5900;SDS011;2976;49.764;9.796;2023-04-07T07:53:42;23.40;;;13.50;;
5900;SDS011;2976;49.764;9.796;2023-04-07T07:56:09;21.13;;;13.60;;
5900;SDS011;2976;49.764;9.796;2023-04-07T07:58:34;19.20;;;13.40;;
5900;SDS011;2976;49.764;9.796;2023-04-07T08:01:00;19.60;;;13.17;;
5900;SDS011;2976;49.764;9.796;2023-04-07T08:03:26;17.63;;;12.87;;
5900;SDS011;2976;49.764;9.796;2023-04-07T08:05:51;20.47;;;13.00;;
5900;SDS011;2976;49.764;9.796;2023-04-07T08:08:17;21.90;;;13.03;;
5900;SDS011;2976;49.764;9.796;2023-04-07T08:10:42;17.43;;;12.20;;
5900;SDS011;2976;49.764;9.796;2023-04-07T08:13:08;20.30;;;13.10;;
5900;SDS011;2976;49.764;9.796;2023-04-07T08:15:34;18.27;;;12.57;;
5900;SDS011;2976;49.764;9.796;2023-04-07T08:18:00;17.23;;;12.93;;
5900;SDS011;2976;49.764;9.796;2023-04-07T08:20:28;16.83;;;12.00;;
5900;SDS011;2976;49.764;9.796;2023-04-07T08:22:54;20.10;;;12.53;;
5900;SDS011;2976;49.764;9.796;2023-04-07T08:25:20;16.50;;;12.43;;
5900;SDS011;2976;49.764;9.796;2023-04-07T08:27:45;19.83;;;12.97;;
5900;SDS011;2976;49.764;9.796;2023-04-07T08:30:11;18.77;;;11.67;;
5900;SDS011;2976;49.764;9.796;2023-04-07T08:32:38;16.53;;;11.33;;
5900;SDS011;2976;49.764;9.796;2023-04-07T08:35:10;22.23;;;12.70;;
5900;SDS011;2976;49.764;9.796;2023-04-07T08:37:36;14.70;;;10.80;;
5900;SDS011;2976;49.764;9.796;2023-04-07T08:40:03;18.00;;;12.40;;
5900;SDS011;2976;49.764;9.796;2023-04-07T08:42:30;15.97;;;11.80;;
5900;SDS011;2976;49.764;9.796;2023-04-07T08:44:57;17.90;;;11.50;;
5900;SDS011;2976;49.764;9.796;2023-04-07T08:47:30;18.10;;;11.47;;
5900;SDS011;2976;49.764;9.796;2023-04-07T08:50:07;14.43;;;10.90;;
5900;SDS011;2976;49.764;9.796;2023-04-07T08:55:19;15.13;;;10.93;;
5900;SDS011;2976;49.764;9.796;2023-04-07T08:57:45;12.87;;;10.40;;
5900;SDS011;2976;49.764;9.796;2023-04-07T09:00:12;14.37;;;10.30;;
5900;SDS011;2976;49.764;9.796;2023-04-07T09:02:38;15.50;;;10.07;;
5900;SDS011;2976;49.764;9.796;2023-04-07T09:05:06;12.83;;;10.57;;
5900;SDS011;2976;49.764;9.796;2023-04-07T09:07:35;14.10;;;10.10;;
5900;SDS011;2976;49.764;9.796;2023-04-07T09:10:04;15.10;;;10.90;;
5900;SDS011;2976;49.764;9.796;2023-04-07T09:12:31;12.70;;;10.20;;
5900;SDS011;2976;49.764;9.796;2023-04-07T09:14:57;17.40;;;12.33;;
5900;SDS011;2976;49.764;9.796;2023-04-07T09:17:26;17.90;;;11.53;;
5900;SDS011;2976;49.764;9.796;2023-04-07T09:19:55;18.13;;;11.57;;
5900;SDS011;2976;49.764;9.796;2023-04-07T09:22:34;18.83;;;12.33;;
5900;SDS011;2976;49.764;9.796;2023-04-07T09:25:11;14.57;;;10.97;;
5900;SDS011;2976;49.764;9.796;2023-04-07T09:27:37;12.87;;;9.23;;
5900;SDS011;2976;49.764;9.796;2023-04-07T09:30:09;12.17;;;9.90;;
5900;SDS011;2976;49.764;9.796;2023-04-07T09:32:39;14.70;;;10.33;;
5900;SDS011;2976;49.764;9.796;2023-04-07T09:35:05;13.87;;;9.97;;
5900;SDS011;2976;49.764;9.796;2023-04-07T09:37:31;16.30;;;10.20;;
5900;SDS011;2976;49.764;9.796;2023-04-07T09:39:57;11.83;;;9.27;;
5900;SDS011;2976;49.764;9.796;2023-04-07T09:42:23;16.40;;;9.90;;
5900;SDS011;2976;49.764;9.796;2023-04-07T09:44:50;12.40;;;9.63;;
5900;SDS011;2976;49.764;9.796;2023-04-07T09:47:16;12.90;;;10.07;;
5900;SDS011;2976;49.764;9.796;2023-04-07T09:49:49;14.40;;;11.23;;
5900;SDS011;2976;49.764;9.796;2023-04-07T09:52:17;14.10;;;10.67;;
5900;SDS011;2976;49.764;9.796;2023-04-07T09:54:44;14.43;;;11.17;;
5900;SDS011;2976;49.764;9.796;2023-04-07T09:57:11;13.40;;;11.37;;
5900;SDS011;2976;49.764;9.796;2023-04-07T09:59:38;15.37;;;10.93;;
5900;SDS011;2976;49.764;9.796;2023-04-07T10:02:08;12.50;;;10.43;;
5900;SDS011;2976;49.764;9.796;2023-04-07T10:04:37;13.40;;;10.20;;
5900;SDS011;2976;49.764;9.796;2023-04-07T10:07:04;15.40;;;11.00;;
5900;SDS011;2976;49.764;9.796;2023-04-07T10:09:30;14.00;;;11.50;;
5900;SDS011;2976;49.764;9.796;2023-04-07T10:11:57;13.03;;;10.77;;
5900;SDS011;2976;49.764;9.796;2023-04-07T10:14:30;17.00;;;11.50;;
5900;SDS011;2976;49.764;9.796;2023-04-07T10:16:56;16.07;;;10.77;;
5900;SDS011;2976;49.764;9.796;2023-04-07T10:19:25;15.50;;;11.70;;
5900;SDS011;2976;49.764;9.796;2023-04-07T10:21:55;14.17;;;10.27;;
5900;SDS011;2976;49.764;9.796;2023-04-07T10:27:03;15.43;;;9.70;;
5900;SDS011;2976;49.764;9.796;2023-04-07T10:29:36;13.60;;;10.80;;
5900;SDS011;2976;49.764;9.796;2023-04-07T10:32:08;14.20;;;10.10;;
5900;SDS011;2976;49.764;9.796;2023-04-07T10:37:21;11.37;;;8.47;;
5900;SDS011;2976;49.764;9.796;2023-04-07T10:39:48;11.07;;;8.83;;
5900;SDS011;2976;49.764;9.796;2023-04-07T10:45:04;11.83;;;8.90;;
5900;SDS011;2976;49.764;9.796;2023-04-07T10:47:31;13.80;;;9.53;;
5900;SDS011;2976;49.764;9.796;2023-04-07T10:52:42;15.30;;;8.87;;
5900;SDS011;2976;49.764;9.796;2023-04-07T11:01:15;14.00;;;8.50;;
5900;SDS011;2976;49.764;9.796;2023-04-07T11:06:07;21.97;;;8.33;;
5900;SDS011;2976;49.764;9.796;2023-04-07T11:08:38;11.53;;;9.13;;
5900;SDS011;2976;49.764;9.796;2023-04-07T11:11:08;9.63;;;8.50;;
5900;SDS011;2976;49.764;9.796;2023-04-07T11:13:39;10.43;;;7.70;;
5900;SDS011;2976;49.764;9.796;2023-04-07T11:16:05;8.97;;;7.43;;
5900;SDS011;2976;49.764;9.796;2023-04-07T11:18:31;13.80;;;8.80;;
5900;SDS011;2976;49.764;9.796;2023-04-07T11:20:57;12.90;;;8.87;;
5900;SDS011;2976;49.764;9.796;2023-04-07T11:23:23;10.27;;;8.87;;
5900;SDS011;2976;49.764;9.796;2023-04-07T11:25:53;10.37;;;8.63;;
5900;SDS011;2976;49.764;9.796;2023-04-07T11:28:28;12.90;;;8.83;;
5900;SDS011;2976;49.764;9.796;2023-04-07T11:30:55;10.60;;;9.00;;
5900;SDS011;2976;49.764;9.796;2023-04-07T11:33:23;15.07;;;10.60;;
5900;SDS011;2976;49.764;9.796;2023-04-07T11:35:52;11.40;;;9.43;;
5900;SDS011;2976;49.764;9.796;2023-04-07T11:38:26;13.77;;;10.20;;
5900;SDS011;2976;49.764;9.796;2023-04-07T11:40:53;12.73;;;9.53;;
5900;SDS011;2976;49.764;9.796;2023-04-07T11:43:26;10.73;;;7.97;;
5900;SDS011;2976;49.764;9.796;2023-04-07T11:48:38;8.23;;;6.97;;
5900;SDS011;2976;49.764;9.796;2023-04-07T11:51:05;11.17;;;7.33;;
5900;SDS011;2976;49.764;9.796;2023-04-07T11:53:32;9.93;;;8.00;;
5900;SDS011;2976;49.764;9.796;2023-04-07T11:56:00;13.17;;;7.87;;
5900;SDS011;2976;49.764;9.796;2023-04-07T11:58:30;8.43;;;7.47;;
5900;SDS011;2976;49.764;9.796;2023-04-07T12:00:57;10.23;;;9.10;;
5900;SDS011;2976;49.764;9.796;2023-04-07T12:03:27;9.53;;;8.23;;
5900;SDS011;2976;49.764;9.796;2023-04-07T12:05:53;10.30;;;8.27;;
5900;SDS011;2976;49.764;9.796;2023-04-07T12:08:19;8.17;;;7.37;;
5900;SDS011;2976;49.764;9.796;2023-04-07T12:10:45;10.77;;;6.70;;
5900;SDS011;2976;49.764;9.796;2023-04-07T12:13:12;10.33;;;7.27;;
5900;SDS011;2976;49.764;9.796;2023-04-07T12:15:38;10.40;;;6.87;;
5900;SDS011;2976;49.764;9.796;2023-04-07T12:18:03;8.10;;;6.90;;
5900;SDS011;2976;49.764;9.796;2023-04-07T12:20:29;10.23;;;7.67;;
5900;SDS011;2976;49.764;9.796;2023-04-07T12:22:55;8.53;;;6.47;;
5900;SDS011;2976;49.764;9.796;2023-04-07T12:25:21;12.80;;;7.60;;
5900;SDS011;2976;49.764;9.796;2023-04-07T12:27:47;6.93;;;5.60;;
5900;SDS011;2976;49.764;9.796;2023-04-07T12:30:13;8.57;;;6.90;;
5900;SDS011;2976;49.764;9.796;2023-04-07T12:32:38;8.00;;;6.70;;
5900;SDS011;2976;49.764;9.796;2023-04-07T12:35:04;7.53;;;6.60;;
5900;SDS011;2976;49.764;9.796;2023-04-07T12:37:30;6.87;;;5.80;;
5900;SDS011;2976;49.764;9.796;2023-04-07T12:39:57;9.70;;;5.83;;
5900;SDS011;2976;49.764;9.796;2023-04-07T12:42:23;8.97;;;6.73;;
5900;SDS011;2976;49.764;9.796;2023-04-07T12:44:49;7.93;;;6.60;;
5900;SDS011;2976;49.764;9.796;2023-04-07T12:47:15;8.73;;;7.20;;
5900;SDS011;2976;49.764;9.796;2023-04-07T12:49:41;8.97;;;7.23;;
5900;SDS011;2976;49.764;9.796;2023-04-07T12:52:06;10.13;;;6.20;;
5900;SDS011;2976;49.764;9.796;2023-04-07T12:54:32;8.10;;;6.50;;
5900;SDS011;2976;49.764;9.796;2023-04-07T12:56:58;7.37;;;5.93;;
5900;SDS011;2976;49.764;9.796;2023-04-07T12:59:23;9.10;;;5.60;;
5900;SDS011;2976;49.764;9.796;2023-04-07T13:01:50;10.50;;;7.30;;
5900;SDS011;2976;49.764;9.796;2023-04-07T13:04:16;6.37;;;5.23;;
5900;SDS011;2976;49.764;9.796;2023-04-07T13:06:41;8.23;;;6.30;;
5900;SDS011;2976;49.764;9.796;2023-04-07T13:09:07;6.17;;;5.43;;
5900;SDS011;2976;49.764;9.796;2023-04-07T13:11:33;8.10;;;6.27;;
5900;SDS011;2976;49.764;9.796;2023-04-07T13:13:58;5.43;;;4.93;;
5900;SDS011;2976;49.764;9.796;2023-04-07T13:16:24;8.23;;;5.13;;
5900;SDS011;2976;49.764;9.796;2023-04-07T13:18:50;7.30;;;5.60;;
5900;SDS011;2976;49.764;9.796;2023-04-07T13:21:15;7.17;;;5.37;;
5900;SDS011;2976;49.764;9.796;2023-04-07T13:23:41;7.73;;;5.20;;
5900;SDS011;2976;49.764;9.796;2023-04-07T13:26:06;5.10;;;4.60;;
5900;SDS011;2976;49.764;9.796;2023-04-07T13:28:32;6.70;;;5.27;;
5900;SDS011;2976;49.764;9.796;2023-04-07T13:30:57;7.77;;;5.60;;
5900;SDS011;2976;49.764;9.796;2023-04-07T13:33:23;10.40;;;5.00;;
5900;SDS011;2976;49.764;9.796;2023-04-07T13:35:48;6.63;;;5.10;;
5900;SDS011;2976;49.764;9.796;2023-04-07T13:38:14;4.70;;;4.30;;
5900;SDS011;2976;49.764;9.796;2023-04-07T13:40:40;8.87;;;5.23;;
5900;SDS011;2976;49.764;9.796;2023-04-07T13:43:05;6.20;;;5.00;;
5900;SDS011;2976;49.764;9.796;2023-04-07T13:45:31;5.87;;;4.53;;
5900;SDS011;2976;49.764;9.796;2023-04-07T13:47:57;6.73;;;5.13;;
5900;SDS011;2976;49.764;9.796;2023-04-07T13:50:23;5.50;;;4.70;;
5900;SDS011;2976;49.764;9.796;2023-04-07T13:52:49;7.10;;;5.17;;
5900;SDS011;2976;49.764;9.796;2023-04-07T13:55:14;7.97;;;6.10;;
5900;SDS011;2976;49.764;9.796;2023-04-07T13:57:40;4.93;;;4.40;;
5900;SDS011;2976;49.764;9.796;2023-04-07T14:00:06;6.93;;;4.50;;
5900;SDS011;2976;49.764;9.796;2023-04-07T14:02:32;6.30;;;4.80;;
5900;SDS011;2976;49.764;9.796;2023-04-07T14:04:58;6.87;;;4.37;;
5900;SDS011;2976;49.764;9.796;2023-04-07T14:07:23;4.83;;;4.40;;
5900;SDS011;2976;49.764;9.796;2023-04-07T14:09:49;5.77;;;4.50;;
5900;SDS011;2976;49.764;9.796;2023-04-07T14:12:15;7.27;;;4.40;;
5900;SDS011;2976;49.764;9.796;2023-04-07T14:14:40;5.73;;;4.87;;
5900;SDS011;2976;49.764;9.796;2023-04-07T14:17:06;7.07;;;4.80;;
5900;SDS011;2976;49.764;9.796;2023-04-07T14:19:31;5.37;;;4.87;;
5900;SDS011;2976;49.764;9.796;2023-04-07T14:21:57;10.80;;;5.10;;
5900;SDS011;2976;49.764;9.796;2023-04-07T14:24:23;7.60;;;4.57;;
5900;SDS011;2976;49.764;9.796;2023-04-07T14:26:48;6.00;;;5.00;;
5900;SDS011;2976;49.764;9.796;2023-04-07T14:29:15;7.97;;;5.00;;
5900;SDS011;2976;49.764;9.796;2023-04-07T14:31:41;9.00;;;5.27;;
5900;SDS011;2976;49.764;9.796;2023-04-07T14:34:06;6.23;;;4.80;;
5900;SDS011;2976;49.764;9.796;2023-04-07T14:36:32;7.43;;;5.13;;
5900;SDS011;2976;49.764;9.796;2023-04-07T14:38:58;6.03;;;4.97;;
5900;SDS011;2976;49.764;9.796;2023-04-07T14:41:25;6.43;;;4.30;;
5900;SDS011;2976;49.764;9.796;2023-04-07T14:43:51;7.20;;;4.40;;
5900;SDS011;2976;49.764;9.796;2023-04-07T14:46:23;9.03;;;4.00;;
5900;SDS011;2976;49.764;9.796;2023-04-07T14:48:50;6.73;;;4.87;;
5900;SDS011;2976;49.764;9.796;2023-04-07T14:51:16;7.13;;;4.30;;
5900;SDS011;2976;49.764;9.796;2023-04-07T14:53:42;5.03;;;4.40;;
5900;SDS011;2976;49.764;9.796;2023-04-07T14:56:08;6.83;;;4.27;;
5900;SDS011;2976;49.764;9.796;2023-04-07T14:58:33;9.00;;;4.30;;
5900;SDS011;2976;49.764;9.796;2023-04-07T15:01:01;4.47;;;3.67;;
5900;SDS011;2976;49.764;9.796;2023-04-07T15:03:27;5.07;;;4.50;;
5900;SDS011;2976;49.764;9.796;2023-04-07T15:05:52;6.77;;;4.23;;
5900;SDS011;2976;49.764;9.796;2023-04-07T15:08:18;4.40;;;4.00;;
5900;SDS011;2976;49.764;9.796;2023-04-07T15:10:43;3.87;;;3.50;;
5900;SDS011;2976;49.764;9.796;2023-04-07T15:13:09;5.07;;;4.10;;
5900;SDS011;2976;49.764;9.796;2023-04-07T15:15:35;4.10;;;3.70;;
5900;SDS011;2976;49.764;9.796;2023-04-07T15:18:00;5.23;;;3.47;;
5900;SDS011;2976;49.764;9.796;2023-04-07T15:20:26;7.17;;;3.90;;
5900;SDS011;2976;49.764;9.796;2023-04-07T15:22:51;5.43;;;4.00;;
5900;SDS011;2976;49.764;9.796;2023-04-07T15:25:17;7.90;;;3.90;;
5900;SDS011;2976;49.764;9.796;2023-04-07T15:27:42;5.60;;;3.53;;
5900;SDS011;2976;49.764;9.796;2023-04-07T15:30:08;5.90;;;3.20;;
5900;SDS011;2976;49.764;9.796;2023-04-07T15:32:34;5.47;;;3.87;;